Time;durP1;ratioP1;P1;durP2;ratioP2;P2;SDS_P1;SDS_P2;PMS_P1;PMS_P2;Temp;Humidity;BMP_temperature;BMP_pressure;BME280_temperature;BME280_humidity;BME280_pressure;Samples;Min_cycle;Max_cycle;Signal;HPM_P1;HPM_P2
2021/07/08 00:02:12;;;;;;;6.63;3.35;;;14.20;71.80;;;;;;6092815;23;20061;-69
2021/07/08 00:04:40;;;;;;;3.72;2.88;;;14.30;72.20;;;;;;6093884;23;20010;-68
2021/07/08 00:07:09;;;;;;;5.85;3.65;;;14.20;72.40;;;;;;6090745;23;20002;-69
2021/07/08 00:09:36;;;;;;;6.50;3.90;;;14.20;72.60;;;;;;6093564;23;20002;-70
2021/07/08 00:12:04;;;;;;;6.78;3.35;;;14.20;72.60;;;;;;6092810;23;20013;-68
2021/07/08 00:14:30;;;;;;;7.30;3.53;;;14.20;73.60;;;;;;6092912;23;20409;-69
2021/07/08 00:16:57;;;;;;;6.97;3.42;;;14.20;73.00;;;;;;6093913;23;20077;-68
2021/07/08 00:19:23;;;;;;;9.90;4.07;;;14.20;73.20;;;;;;6092155;23;20010;-69
2021/07/08 00:21:50;;;;;;;7.55;3.05;;;14.20;73.40;;;;;;6093463;23;20427;-68
2021/07/08 00:24:16;;;;;;;11.80;3.92;;;14.20;73.50;;;;;;6092885;23;20058;-69
2021/07/08 00:26:43;;;;;;;8.18;3.15;;;14.20;73.60;;;;;;6093856;23;20026;-69
2021/07/08 00:29:09;;;;;;;5.28;3.50;;;14.20;73.80;;;;;;6092624;23;20006;-69
2021/07/08 00:31:36;;;;;;;6.90;3.03;;;14.20;73.90;;;;;;6093020;23;20010;-68
2021/07/08 00:34:03;;;;;;;7.93;5.35;;;14.20;74.00;;;;;;6093266;23;19998;-68
2021/07/08 00:36:30;;;;;;;3.65;2.85;;;14.20;73.90;;;;;;6092253;23;20002;-68
2021/07/08 00:38:58;;;;;;;10.60;3.40;;;14.20;74.00;;;;;;6093212;23;20061;-69
2021/07/08 00:41:25;;;;;;;4.72;2.83;;;14.20;74.20;;;;;;6092034;23;20102;-68
2021/07/08 00:43:52;;;;;;;8.80;3.00;;;14.20;74.30;;;;;;6093269;23;20006;-68
2021/07/08 00:46:22;;;;;;;7.10;3.80;;;14.20;74.40;;;;;;6091918;23;20044;-69
2021/07/08 00:48:49;;;;;;;5.85;3.25;;;14.20;74.50;;;;;;6093355;23;20029;-69
2021/07/08 00:51:15;;;;;;;6.68;2.75;;;14.20;74.70;;;;;;6093458;23;20422;-68
2021/07/08 00:53:42;;;;;;;5.80;3.65;;;14.20;74.80;;;;;;6092731;23;20002;-68
2021/07/08 00:56:11;;;;;;;6.25;2.83;;;14.20;75.00;;;;;;6091774;23;20134;-68
2021/07/08 00:58:38;;;;;;;9.25;3.03;;;14.20;75.20;;;;;;6091807;23;20126;-68
2021/07/08 01:01:04;;;;;;;5.43;3.05;;;14.20;75.50;;;;;;6093779;23;20360;-69
2021/07/08 01:03:32;;;;;;;5.43;2.53;;;14.20;75.60;;;;;;6091831;23;20007;-68
2021/07/08 01:05:58;;;;;;;6.15;4.80;;;14.20;75.70;;;;;;6093132;23;20394;-68
2021/07/08 01:08:25;;;;;;;6.43;3.47;;;14.20;75.90;;;;;;6092750;23;20013;-68
2021/07/08 01:10:52;;;;;;;6.22;3.22;;;14.20;76.00;;;;;;6091946;23;20663;-70
2021/07/08 01:13:20;;;;;;;7.13;4.43;;;14.20;76.10;;;;;;6092787;23;20097;-69
2021/07/08 01:15:47;;;;;;;8.35;4.35;;;14.20;76.30;;;;;;6091515;23;20073;-70
2021/07/08 01:18:14;;;;;;;10.95;4.55;;;14.20;76.30;;;;;;6093190;23;20113;-69
2021/07/08 01:20:41;;;;;;;5.95;4.72;;;14.20;76.20;;;;;;6091096;23;20007;-69
2021/07/08 01:23:07;;;;;;;6.40;4.50;;;14.10;76.00;;;;;;6092911;23;20098;-69
2021/07/08 01:25:39;;;;;;;10.35;4.75;;;14.20;75.90;;;;;;6092610;23;20101;-69
2021/07/08 01:28:08;;;;;;;9.07;4.38;;;14.10;75.60;;;;;;6090491;23;20003;-69
2021/07/08 01:30:35;;;;;;;16.70;6.18;;;14.10;75.40;;;;;;6092595;23;19999;-69
2021/07/08 01:33:02;;;;;;;8.32;5.20;;;14.10;75.30;;;;;;6091449;23;19999;-70
2021/07/08 01:35:29;;;;;;;7.72;5.20;;;14.10;75.10;;;;;;6092647;23;20011;-69
2021/07/08 01:37:56;;;;;;;9.50;5.47;;;14.10;74.90;;;;;;6091890;23;19999;-69
2021/07/08 01:40:22;;;;;;;11.13;6.20;;;14.10;74.70;;;;;;6092550;23;20014;-69
2021/07/08 01:42:49;;;;;;;9.10;6.13;;;14.00;74.40;;;;;;6092057;23;20033;-69
2021/07/08 01:45:17;;;;;;;5.95;4.57;;;14.00;74.20;;;;;;6092229;23;20002;-69
2021/07/08 01:47:45;;;;;;;8.90;5.93;;;14.00;74.00;;;;;;6092605;23;20082;-69
2021/07/08 01:50:14;;;;;;;9.57;4.85;;;14.00;73.90;;;;;;6091752;23;20017;-70
2021/07/08 01:52:41;;;;;;;8.35;4.80;;;13.90;73.80;;;;;;6092432;23;19998;-69
2021/07/08 01:55:08;;;;;;;10.13;4.65;;;13.90;73.90;;;;;;6091395;23;20081;-69
2021/07/08 01:57:37;;;;;;;5.32;4.43;;;13.90;74.10;;;;;;6092497;23;20058;-69
2021/07/08 02:00:05;;;;;;;6.40;3.47;;;13.90;74.30;;;;;;6092107;23;20014;-69
2021/07/08 02:02:31;;;;;;;7.25;3.85;;;13.90;74.50;;;;;;6092217;23;19998;-69
2021/07/08 02:04:58;;;;;;;5.72;3.85;;;13.90;74.60;;;;;;6092563;23;20045;-69
2021/07/08 02:07:24;;;;;;;4.82;3.50;;;13.90;74.60;;;;;;6091723;23;20036;-69
2021/07/08 02:09:51;;;;;;;7.93;4.15;;;13.90;74.60;;;;;;6092213;23;20002;-69
2021/07/08 02:12:17;;;;;;;8.85;3.63;;;13.90;74.60;;;;;;6090881;23;20072;-69
2021/07/08 02:14:44;;;;;;;6.88;4.22;;;13.90;74.60;;;;;;6092887;23;20002;-69
2021/07/08 02:17:10;;;;;;;3.65;2.70;;;13.90;74.60;;;;;;6091265;23;20002;-69
2021/07/08 02:19:37;;;;;;;6.78;3.65;;;13.90;74.60;;;;;;6092136;23;20010;-69
2021/07/08 02:22:03;;;;;;;4.88;3.28;;;13.90;74.60;;;;;;6091750;23;20013;-69
2021/07/08 02:24:58;;;;;;;5.65;3.25;;;13.90;74.70;;;;;;6086400;23;20002;-69
2021/07/08 02:28:04;;;;;;;3.97;2.97;;;13.90;74.80;;;;;;6087910;23;20368;-69
2021/07/08 02:30:30;;;;;;;6.63;2.78;;;13.90;74.90;;;;;;6090558;23;19999;-69
2021/07/08 02:32:58;;;;;;;6.07;3.00;;;14.00;74.90;;;;;;6090409;23;20003;-69
2021/07/08 02:35:26;;;;;;;3.67;2.90;;;13.90;74.90;;;;;;6090634;23;20006;-70
2021/07/08 02:37:54;;;;;;;6.15;4.15;;;14.00;75.10;;;;;;6089946;23;20497;-69
2021/07/08 02:40:24;;;;;;;8.93;3.70;;;14.00;75.20;;;;;;6090947;23;20021;-69
2021/07/08 02:42:52;;;;;;;5.65;2.70;;;14.00;75.20;;;;;;6089420;23;20007;-69
2021/07/08 02:45:25;;;;;;;6.95;3.08;;;14.00;75.30;;;;;;6092515;23;20003;-69
2021/07/08 02:47:52;;;;;;;6.90;3.30;;;14.00;75.40;;;;;;6091568;23;20405;-69
2021/07/08 02:50:58;;;;;;;10.85;4.07;;;14.00;75.50;;;;;;6091361;23;20426;-69
2021/07/08 02:54:04;;;;;;;4.20;2.88;;;14.00;75.70;;;;;;6090179;23;20003;-69
2021/07/08 02:57:10;;;;;;;16.02;2.92;;;14.00;75.80;;;;;;6091405;23;20002;-69
2021/07/08 03:00:16;;;;;;;9.80;4.10;;;14.00;75.90;;;;;;6090845;23;20018;-69
2021/07/08 03:03:22;;;;;;;4.53;3.40;;;14.00;76.00;;;;;;6092823;23;20002;-69
2021/07/08 03:06:29;;;;;;;6.32;2.80;;;14.00;76.10;;;;;;6092085;23;20081;-69
2021/07/08 03:08:55;;;;;;;7.15;2.88;;;14.00;76.30;;;;;;6090826;23;20006;-69
2021/07/08 03:11:23;;;;;;;6.55;3.50;;;14.10;76.30;;;;;;6092681;23;20002;-69
2021/07/08 03:13:49;;;;;;;4.45;3.20;;;14.10;76.40;;;;;;6091431;23;20347;-69
2021/07/08 03:16:16;;;;;;;6.22;3.63;;;14.10;76.50;;;;;;6091944;23;20022;-69
2021/07/08 03:18:42;;;;;;;6.32;3.10;;;14.00;76.50;;;;;;6092418;23;20013;-69
2021/07/08 03:21:09;;;;;;;9.63;3.22;;;14.00;76.70;;;;;;6090884;23;20011;-69
2021/07/08 03:23:35;;;;;;;6.18;3.75;;;14.00;76.80;;;;;;6091827;23;20006;-69
2021/07/08 03:26:03;;;;;;;5.78;3.05;;;14.00;76.80;;;;;;6090777;23;20022;-69
2021/07/08 03:28:30;;;;;;;7.18;4.35;;;14.00;76.90;;;;;;6091986;23;20418;-69
2021/07/08 03:30:56;;;;;;;10.38;3.92;;;14.00;77.00;;;;;;6091137;23;20007;-69
2021/07/08 03:33:23;;;;;;;9.43;3.58;;;14.00;77.10;;;;;;6092372;23;20006;-69
2021/07/08 03:35:49;;;;;;;7.82;3.03;;;14.00;77.10;;;;;;6093972;23;20058;-69
2021/07/08 03:38:16;;;;;;;11.77;3.78;;;14.00;77.20;;;;;;6092940;23;20006;-69
2021/07/08 03:40:42;;;;;;;5.78;3.28;;;14.00;77.20;;;;;;6093704;23;20018;-69
2021/07/08 03:43:09;;;;;;;3.63;2.53;;;14.00;77.30;;;;;;6092847;23;20014;-69
2021/07/08 03:45:35;;;;;;;5.63;3.53;;;14.00;77.20;;;;;;6093808;23;20363;-70
2021/07/08 03:48:02;;;;;;;9.48;6.00;;;14.00;77.20;;;;;;6092992;23;20003;-69
2021/07/08 03:50:29;;;;;;;12.93;7.65;;;14.00;77.20;;;;;;6094130;23;20003;-70
2021/07/08 03:52:58;;;;;;;8.10;5.65;;;14.00;77.20;;;;;;6093237;23;20005;-69
2021/07/08 03:55:25;;;;;;;12.32;4.60;;;13.90;77.10;;;;;;6093031;23;19994;-69
2021/07/08 03:57:55;;;;;;;9.15;5.03;;;13.90;77.10;;;;;;6093960;23;20493;-70
2021/07/08 04:00:32;;;;;;;6.30;4.30;;;13.90;77.10;;;;;;6092672;23;20049;-70
2021/07/08 04:03:05;;;;;;;6.35;4.13;;;13.90;77.00;;;;;;6093712;23;20002;-70
2021/07/08 04:05:32;;;;;;;5.80;3.38;;;13.90;77.00;;;;;;6092694;23;20006;-69
2021/07/08 04:07:59;;;;;;;5.97;3.42;;;13.90;77.00;;;;;;6093385;23;20011;-69
2021/07/08 04:10:26;;;;;;;5.07;3.55;;;13.90;77.10;;;;;;6093333;23;20006;-70
2021/07/08 04:12:54;;;;;;;6.38;3.03;;;13.90;77.10;;;;;;6092558;23;20069;-70
2021/07/08 04:15:21;;;;;;;5.82;2.83;;;13.90;77.20;;;;;;6093338;23;20460;-70
2021/07/08 04:17:47;;;;;;;8.88;4.30;;;13.90;77.20;;;;;;6092674;23;20002;-69
2021/07/08 04:20:53;;;;;;;7.10;2.72;;;13.90;77.30;;;;;;6093241;23;20057;-70
2021/07/08 04:23:57;;;;;;;4.22;2.75;;;13.90;77.30;;;;;;6092901;23;20449;-70
2021/07/08 04:26:23;;;;;;;6.22;2.33;;;13.90;77.30;;;;;;6090585;23;20062;-70
2021/07/08 04:28:49;;;;;;;5.70;2.78;;;13.90;77.20;;;;;;6093967;23;20003;-70
2021/07/08 04:31:16;;;;;;;5.10;2.50;;;13.90;77.30;;;;;;6091624;23;19999;-70
2021/07/08 04:33:46;;;;;;;6.47;3.60;;;13.90;77.30;;;;;;6093109;23;20062;-70
2021/07/08 04:36:13;;;;;;;2.40;2.20;;;13.90;77.30;;;;;;6092843;23;20343;-70
2021/07/08 04:38:42;;;;;;;3.53;2.38;;;13.90;77.40;;;;;;6092531;23;20006;-69
2021/07/08 04:41:10;;;;;;;5.85;3.25;;;13.90;77.40;;;;;;6093407;23;20002;-69
2021/07/08 04:43:36;;;;;;;9.15;4.13;;;13.90;77.30;;;;;;6091868;23;20006;-70
2021/07/08 04:46:03;;;;;;;5.15;4.65;;;13.90;77.30;;;;;;6091590;23;20006;-69
2021/07/08 04:48:29;;;;;;;6.75;4.07;;;13.90;77.40;;;;;;6092211;23;20005;-70
2021/07/08 04:50:59;;;;;;;5.00;4.20;;;13.90;77.40;;;;;;6093278;23;20007;-69
2021/07/08 04:53:26;;;;;;;4.72;3.40;;;13.90;77.50;;;;;;6091275;23;20010;-70
2021/07/08 04:55:52;;;;;;;2.88;2.40;;;13.90;77.50;;;;;;6091061;23;19999;-69
2021/07/08 04:58:19;;;;;;;4.00;3.08;;;13.90;77.50;;;;;;6092395;23;20033;-70
2021/07/08 05:00:45;;;;;;;3.05;2.30;;;13.90;77.50;;;;;;6090294;23;20536;-70
2021/07/08 05:03:12;;;;;;;3.50;2.70;;;13.90;77.60;;;;;;6090788;23;20498;-70
2021/07/08 05:05:38;;;;;;;4.72;2.22;;;13.90;77.60;;;;;;6091140;23;20063;-70
2021/07/08 05:08:06;;;;;;;4.75;2.45;;;13.90;77.50;;;;;;6091860;23;20002;-70
2021/07/08 05:10:33;;;;;;;3.28;2.15;;;13.90;77.60;;;;;;6090987;23;20025;-70
2021/07/08 05:13:00;;;;;;;3.28;1.95;;;13.90;77.40;;;;;;6091860;23;20026;-70
2021/07/08 05:15:26;;;;;;;4.90;2.15;;;13.90;77.40;;;;;;6091618;23;20013;-70
2021/07/08 05:17:53;;;;;;;5.88;2.10;;;13.90;77.40;;;;;;6090886;23;20010;-70
2021/07/08 05:20:19;;;;;;;4.63;2.55;;;13.90;77.30;;;;;;6092453;23;20049;-70
2021/07/08 05:22:47;;;;;;;10.38;3.80;;;13.90;77.30;;;;;;6089675;23;20006;-70
2021/07/08 05:25:16;;;;;;;3.08;2.22;;;13.90;77.30;;;;;;6091437;23;19999;-69
2021/07/08 05:27:42;;;;;;;3.83;2.67;;;13.80;77.30;;;;;;6089653;23;20006;-70
2021/07/08 05:30:10;;;;;;;3.72;3.17;;;13.80;77.20;;;;;;6089329;23;20334;-70
2021/07/08 05:32:37;;;;;;;6.28;2.58;;;13.80;77.70;;;;;;6091283;23;20439;-70
2021/07/08 05:35:05;;;;;;;4.18;2.60;;;13.80;77.00;;;;;;6090249;23;20005;-70
2021/07/08 05:37:32;;;;;;;3.20;2.33;;;13.80;77.10;;;;;;6092307;23;20085;-70
2021/07/08 05:39:58;;;;;;;4.00;3.10;;;13.80;77.00;;;;;;6091231;23;20066;-71
2021/07/08 05:43:04;;;;;;;5.07;3.85;;;13.80;77.10;;;;;;6086399;23;20003;-72
2021/07/08 05:46:10;;;;;;;7.07;5.82;;;13.80;77.10;;;;;;6090639;23;20006;-70
2021/07/08 05:49:16;;;;;;;8.50;6.57;;;13.80;77.10;;;;;;6089811;23;20374;-71
2021/07/08 05:52:22;;;;;;;5.85;4.53;;;13.80;77.50;;;;;;6090976;23;20498;-70
2021/07/08 05:55:29;;;;;;;5.50;3.90;;;13.80;77.10;;;;;;6090837;23;20006;-70
2021/07/08 05:58:35;;;;;;;4.65;3.78;;;13.80;77.10;;;;;;6090494;23;20323;-70
2021/07/08 06:01:01;;;;;;;5.95;3.85;;;13.80;77.20;;;;;;6091771;23;20013;-70
2021/07/08 06:03:28;;;;;;;6.40;3.05;;;13.80;77.20;;;;;;6093495;23;20034;-71
2021/07/08 06:05:54;;;;;;;3.65;2.88;;;13.80;77.20;;;;;;6091145;23;20002;-70
2021/07/08 06:08:20;;;;;;;3.83;2.75;;;13.70;77.20;;;;;;6092054;23;20009;-71
2021/07/08 06:10:47;;;;;;;3.30;2.80;;;13.70;77.20;;;;;;6091023;23;20010;-70
2021/07/08 06:13:13;;;;;;;5.57;2.88;;;13.70;77.30;;;;;;6092480;23;20033;-69
2021/07/08 06:15:40;;;;;;;5.15;3.55;;;13.70;77.30;;;;;;6091702;23;20002;-69
2021/07/08 06:18:47;;;;;;;6.05;3.50;;;13.70;77.30;;;;;;6085293;23;20110;-69
2021/07/08 06:21:30;;;;;;;6.55;5.10;;;13.70;77.40;;;;;;6089614;23;20406;-69
2021/07/08 06:23:56;;;;;;;5.00;3.63;;;13.70;77.40;;;;;;6089596;23;20006;-69
2021/07/08 06:26:23;;;;;;;3.63;3.13;;;13.70;77.40;;;;;;6090698;23;20088;-70
2021/07/08 06:28:49;;;;;;;5.28;3.20;;;13.70;77.50;;;;;;6090279;23;20090;-69
2021/07/08 06:31:56;;;;;;;4.57;2.95;;;13.70;77.50;;;;;;6085144;23;20002;-69
2021/07/08 06:34:22;;;;;;;3.28;2.60;;;13.70;77.60;;;;;;6089171;23;20002;-69
2021/07/08 06:36:48;;;;;;;4.82;3.15;;;13.70;77.60;;;;;;6085922;23;20457;-69
2021/07/08 06:39:15;;;;;;;6.35;2.75;;;13.70;77.70;;;;;;6090253;23;20037;-69
2021/07/08 06:41:41;;;;;;;4.55;2.72;;;13.70;77.80;;;;;;6090404;23;20085;-69
2021/07/08 06:44:08;;;;;;;3.80;2.45;;;13.70;77.90;;;;;;6090190;23;20033;-70
2021/07/08 06:46:34;;;;;;;4.03;2.75;;;13.70;78.00;;;;;;6090119;23;20010;-69
2021/07/08 06:49:01;;;;;;;5.60;2.15;;;13.70;78.10;;;;;;6089155;23;20010;-69
2021/07/08 06:51:29;;;;;;;7.25;3.45;;;13.70;78.10;;;;;;6090689;23;20010;-69
2021/07/08 06:53:56;;;;;;;3.00;2.22;;;13.70;78.20;;;;;;6090032;23;20002;-70
2021/07/08 06:56:24;;;;;;;6.13;2.67;;;13.70;78.30;;;;;;6092252;23;20418;-70
2021/07/08 06:58:50;;;;;;;6.32;2.20;;;13.70;78.30;;;;;;6091786;23;20005;-69
2021/07/08 07:01:17;;;;;;;6.43;2.65;;;13.70;78.30;;;;;;6091851;23;19999;-69
2021/07/08 07:03:44;;;;;;;5.90;2.72;;;13.80;78.40;;;;;;6092007;23;20003;-68
2021/07/08 07:06:10;;;;;;;3.80;2.55;;;13.80;78.50;;;;;;6091484;23;20002;-70
2021/07/08 07:08:37;;;;;;;4.03;2.70;;;13.80;78.50;;;;;;6093107;23;20509;-69
2021/07/08 07:11:04;;;;;;;5.40;2.95;;;13.80;78.60;;;;;;6092897;23;20062;-72
2021/07/08 07:13:30;;;;;;;4.25;2.25;;;13.80;78.60;;;;;;6093879;23;20450;-69
2021/07/08 07:15:57;;;;;;;4.07;2.15;;;13.80;78.70;;;;;;6092593;23;20479;-69
2021/07/08 07:18:24;;;;;;;3.03;1.90;;;13.80;78.60;;;;;;6094434;23;20334;-69
2021/07/08 07:20:50;;;;;;;4.28;2.35;;;13.80;78.70;;;;;;6093696;23;20774;-69
2021/07/08 07:23:17;;;;;;;5.15;2.42;;;13.80;78.70;;;;;;6093328;23;20036;-69
2021/07/08 07:25:45;;;;;;;5.72;2.00;;;13.80;78.80;;;;;;6094156;23;20013;-69
2021/07/08 07:28:12;;;;;;;10.38;2.53;;;13.80;78.80;;;;;;6092610;23;19998;-69
2021/07/08 07:30:39;;;;;;;7.00;2.40;;;13.90;78.80;;;;;;6094003;23;20017;-69
2021/07/08 07:33:06;;;;;;;5.72;2.00;;;13.90;78.80;;;;;;6092671;23;20024;-69
2021/07/08 07:35:32;;;;;;;3.80;1.65;;;13.90;78.80;;;;;;6093986;23;20006;-69
2021/07/08 07:37:59;;;;;;;3.65;2.15;;;13.90;78.80;;;;;;6093309;23;20002;-69
2021/07/08 07:40:26;;;;;;;2.67;1.27;;;13.90;78.90;;;;;;6093738;23;20342;-69
2021/07/08 07:42:52;;;;;;;5.18;2.03;;;13.90;78.90;;;;;;6093412;23;20010;-69
2021/07/08 07:45:19;;;;;;;3.47;1.83;;;13.90;78.90;;;;;;6092905;23;20342;-69
2021/07/08 07:47:47;;;;;;;4.28;2.42;;;13.90;79.00;;;;;;6093501;23;20003;-69
2021/07/08 07:50:14;;;;;;;1.95;1.23;;;13.90;79.10;;;;;;6092838;23;20002;-69
2021/07/08 07:52:40;;;;;;;6.25;1.33;;;14.00;79.20;;;;;;6093562;23;20003;-69
2021/07/08 07:55:07;;;;;;;3.53;2.13;;;14.00;79.20;;;;;;6092862;23;20030;-69
2021/07/08 07:57:34;;;;;;;4.88;1.48;;;14.00;79.30;;;;;;6093410;23;20002;-69
2021/07/08 08:00:00;;;;;;;5.72;1.80;;;14.00;79.30;;;;;;6093629;23;20017;-69
2021/07/08 08:02:27;;;;;;;7.72;1.65;;;14.00;79.30;;;;;;6092063;23;20009;-69
2021/07/08 08:10:25;;;;;;;3.33;1.90;;;14.10;79.40;;;;;;5977434;24;20019;-69
2021/07/08 08:12:52;;;;;;;5.13;1.65;;;14.10;79.30;;;;;;5976175;24;20107;-69
2021/07/08 08:15:19;;;;;;;7.93;2.13;;;14.10;79.40;;;;;;6031160;23;20006;-69
2021/07/08 08:17:47;;;;;;;4.97;1.58;;;14.10;79.40;;;;;;6093496;23;20028;-69
2021/07/08 08:20:15;;;;;;;3.30;1.77;;;14.20;79.50;;;;;;6092157;23;20015;-69
2021/07/08 08:22:43;;;;;;;3.05;1.30;;;14.20;79.50;;;;;;6093808;23;20308;-69
2021/07/08 08:25:11;;;;;;;5.45;1.30;;;14.20;79.50;;;;;;6092400;23;20003;-69
2021/07/08 08:27:38;;;;;;;4.80;1.40;;;14.20;79.60;;;;;;6093949;23;20049;-69
2021/07/08 08:30:07;;;;;;;5.22;1.50;;;14.30;79.60;;;;;;6093765;23;20430;-69
2021/07/08 08:32:33;;;;;;;8.43;1.35;;;14.30;79.60;;;;;;6093114;23;19994;-69
2021/07/08 08:35:00;;;;;;;3.25;1.25;;;14.30;79.60;;;;;;6093605;23;19998;-69
2021/07/08 08:37:26;;;;;;;6.15;1.40;;;14.30;79.60;;;;;;6092236;23;20003;-69
2021/07/08 08:39:52;;;;;;;5.32;1.58;;;14.30;79.60;;;;;;6093363;23;20435;-69
2021/07/08 08:42:19;;;;;;;3.28;1.50;;;14.30;79.60;;;;;;6092314;23;20664;-69
2021/07/08 08:44:45;;;;;;;8.20;1.77;;;14.40;79.70;;;;;;6093595;23;20009;-69
2021/07/08 08:47:12;;;;;;;2.28;0.77;;;14.30;79.60;;;;;;6092527;23;20007;-69
2021/07/08 08:49:41;;;;;;;4.28;1.40;;;14.40;79.70;;;;;;6093395;23;20090;-70
2021/07/08 08:52:12;;;;;;;3.85;1.08;;;14.40;79.70;;;;;;6093306;23;20007;-70
2021/07/08 08:54:41;;;;;;;4.93;1.67;;;14.40;79.70;;;;;;6091901;23;20091;-69
2021/07/08 08:57:08;;;;;;;3.03;0.93;;;14.50;79.70;;;;;;6093135;23;20010;-69
2021/07/08 08:59:36;;;;;;;2.53;1.30;;;14.50;79.80;;;;;;6092073;23;20460;-69
2021/07/08 09:02:19;;;;;;;4.88;2.10;;;14.50;79.80;;;;;;6092909;23;20026;-69
2021/07/08 09:04:47;;;;;;;3.80;1.65;;;14.50;79.90;;;;;;6092775;23;20449;-70
2021/07/08 09:07:34;;;;;;;2.42;1.10;;;14.60;80.10;;;;;;6092520;23;19995;-70
2021/07/08 09:10:11;;;;;;;3.97;1.27;;;14.60;80.20;;;;;;6093167;23;20021;-69
2021/07/08 09:12:38;;;;;;;3.80;1.10;;;14.60;80.30;;;;;;6091519;23;20137;-69
2021/07/08 09:15:18;;;;;;;2.35;1.05;;;14.60;80.40;;;;;;6093576;23;20462;-69
2021/07/08 09:17:46;;;;;;;4.72;1.13;;;14.60;80.50;;;;;;6092689;23;20573;-69
2021/07/08 09:20:17;;;;;;;4.07;0.77;;;14.60;80.60;;;;;;6092015;23;20426;-69
2021/07/08 09:22:45;;;;;;;1.95;1.00;;;14.60;80.60;;;;;;6092894;23;20335;-69
2021/07/08 09:25:25;;;;;;;2.53;1.83;;;14.60;80.70;;;;;;6092128;23;20002;-69
2021/07/08 09:28:13;;;;;;;1.38;1.00;;;14.70;80.80;;;;;;6093114;23;20337;-69
2021/07/08 09:30:42;;;;;;;3.17;0.95;;;14.70;80.80;;;;;;6091980;23;20042;-69
2021/07/08 09:33:31;;;;;;;2.35;1.70;;;14.70;81.00;;;;;;6091992;23;20026;-69
2021/07/08 09:36:09;;;;;;;4.85;1.63;;;14.70;81.00;;;;;;6093239;23;20334;-69
2021/07/08 09:38:35;;;;;;;6.28;1.20;;;14.70;81.10;;;;;;6091809;23;20467;-69
2021/07/08 09:41:08;;;;;;;6.18;1.33;;;14.80;81.30;;;;;;6092823;23;20146;-69
2021/07/08 09:43:37;;;;;;;1.80;0.95;;;14.80;81.50;;;;;;6092058;23;20465;-69
2021/07/08 09:46:04;;;;;;;3.58;1.25;;;14.90;81.70;;;;;;6091938;23;19998;-69
2021/07/08 09:48:31;;;;;;;5.22;1.38;;;14.90;81.90;;;;;;6092823;23;19998;-69
2021/07/08 09:50:58;;;;;;;3.33;0.82;;;15.00;82.10;;;;;;6091669;23;20049;-69
2021/07/08 09:53:25;;;;;;;10.40;2.05;;;15.00;82.20;;;;;;6092599;23;20079;-69
2021/07/08 09:59:29;;;;;;;3.50;1.20;;;15.10;82.50;;;;;;6090455;23;20033;-69
2021/07/08 10:02:37;;;;;;;7.28;1.00;;;15.20;82.60;;;;;;6090895;23;20066;-69
2021/07/08 10:05:43;;;;;;;3.03;1.10;;;15.20;82.80;;;;;;6088795;23;20025;-70
2021/07/08 10:08:50;;;;;;;5.00;1.27;;;15.30;83.00;;;;;;6089159;23;20014;-70
2021/07/08 10:11:57;;;;;;;3.80;0.98;;;15.30;83.20;;;;;;6090930;23;20070;-69
2021/07/08 10:15:03;;;;;;;3.45;0.90;;;15.40;83.30;;;;;;6091351;23;20026;-69
2021/07/08 10:18:12;;;;;;;4.05;1.10;;;15.40;83.40;;;;;;6089697;23;20427;-70
2021/07/08 10:21:18;;;;;;;9.20;2.22;;;15.40;83.40;;;;;;6090603;23;20014;-69
2021/07/08 10:24:24;;;;;;;5.22;1.63;;;15.40;82.90;;;;;;6091214;23;20103;-69
2021/07/08 10:27:30;;;;;;;8.13;1.80;;;15.40;82.80;;;;;;6091134;23;20009;-69
2021/07/08 10:30:36;;;;;;;7.18;1.73;;;15.40;82.70;;;;;;6091121;23;20010;-69
2021/07/08 10:33:42;;;;;;;5.93;1.48;;;15.40;82.90;;;;;;6085757;23;20010;-70
2021/07/08 10:36:48;;;;;;;6.40;1.50;;;15.40;82.60;;;;;;6092565;23;20002;-69
2021/07/08 10:39:54;;;;;;;5.65;2.25;;;15.40;82.60;;;;;;6090976;23;20014;-69
2021/07/08 10:43:03;;;;;;;9.30;1.63;;;15.50;82.70;;;;;;6091676;23;20006;-69
2021/07/08 10:45:38;;;;;;;4.57;1.80;;;15.50;82.80;;;;;;6090094;23;20006;-69
2021/07/08 10:48:45;;;;;;;3.42;1.50;;;15.50;82.70;;;;;;6091127;23;20489;-69
2021/07/08 10:51:27;;;;;;;13.32;3.45;;;15.50;82.80;;;;;;6091401;23;20002;-69
2021/07/08 10:54:48;;;;;;;8.98;2.72;;;15.50;83.00;;;;;;6092443;23;20030;-69
2021/07/08 10:57:53;;;;;;;5.75;1.90;;;15.60;83.00;;;;;;6091951;23;20358;-68
2021/07/08 11:01:01;;;;;;;5.30;1.92;;;15.60;82.70;;;;;;6090939;23;20022;-69
2021/07/08 11:04:01;;;;;;;6.10;1.77;;;15.60;82.40;;;;;;6092885;23;20006;-69
2021/07/08 11:06:50;;;;;;;7.47;2.05;;;15.60;82.30;;;;;;6092651;23;20007;-69
2021/07/08 11:09:17;;;;;;;9.57;2.65;;;15.60;82.40;;;;;;6090877;23;20003;-68
2021/07/08 11:11:46;;;;;;;6.65;2.10;;;15.70;82.40;;;;;;6092050;23;20489;-68
2021/07/08 11:14:15;;;;;;;9.98;2.75;;;15.70;82.40;;;;;;6090815;23;20018;-69
2021/07/08 11:17:11;;;;;;;15.40;2.80;;;15.70;82.40;;;;;;6091705;23;20037;-69
2021/07/08 11:20:17;;;;;;;11.38;2.65;;;15.70;82.60;;;;;;6092031;23;20006;-69
2021/07/08 11:22:43;;;;;;;7.05;2.10;;;15.70;82.70;;;;;;6090760;23;20437;-69
2021/07/08 11:25:11;;;;;;;10.88;2.15;;;15.70;82.60;;;;;;6092067;23;20007;-68
2021/07/08 11:28:17;;;;;;;8.38;2.25;;;15.70;82.50;;;;;;6088800;23;20387;-69
2021/07/08 11:30:57;;;;;;;10.57;2.58;;;15.70;82.40;;;;;;6085188;23;20013;-70
2021/07/08 11:34:03;;;;;;;16.30;5.10;;;15.70;82.10;;;;;;6089802;23;20030;-71
2021/07/08 11:37:09;;;;;;;11.18;2.95;;;15.70;81.90;;;;;;6089518;23;20280;-69
2021/07/08 11:40:18;;;;;;;14.73;4.32;;;15.60;81.90;;;;;;6087651;23;20509;-70
2021/07/08 11:43:13;;;;;;;11.63;4.25;;;15.60;81.90;;;;;;6088918;23;20017;-69
2021/07/08 11:46:28;;;;;;;9.65;2.35;;;15.60;82.00;;;;;;6088205;23;20089;-68
2021/07/08 11:49:34;;;;;;;9.70;2.15;;;15.50;82.00;;;;;;6088754;23;20006;-70
2021/07/08 11:52:40;;;;;;;10.77;2.53;;;15.50;82.30;;;;;;6088781;23;20499;-69
2021/07/08 11:55:47;;;;;;;14.32;2.35;;;15.40;82.40;;;;;;6091791;23;20006;-71
2021/07/08 11:58:53;;;;;;;7.38;2.17;;;15.40;82.40;;;;;;6092235;23;20006;-70
2021/07/08 12:01:59;;;;;;;9.85;3.05;;;15.40;82.50;;;;;;6090576;23;20025;-70
2021/07/08 12:05:05;;;;;;;8.63;3.55;;;15.40;82.60;;;;;;6091337;23;20002;-69
2021/07/08 12:08:11;;;;;;;14.27;3.53;;;15.40;82.60;;;;;;6091211;23;20025;-69
2021/07/08 12:11:21;;;;;;;8.98;2.50;;;15.40;82.70;;;;;;6091324;23;20086;-70
2021/07/08 12:14:14;;;;;;;11.88;2.92;;;15.30;82.70;;;;;;6089573;23;20022;-70
2021/07/08 12:17:03;;;;;;;7.97;2.40;;;15.30;82.80;;;;;;6091327;23;20014;-70
2021/07/08 12:20:09;;;;;;;5.95;2.55;;;15.30;82.90;;;;;;6091299;23;20444;-70
2021/07/08 12:23:16;;;;;;;7.25;2.88;;;15.30;83.10;;;;;;6090805;23;20003;-69
2021/07/08 12:26:22;;;;;;;10.20;2.83;;;15.30;83.10;;;;;;6091213;23;20386;-69
2021/07/08 12:29:37;;;;;;;8.98;2.22;;;15.30;83.10;;;;;;6091405;23;20007;-69
2021/07/08 12:32:46;;;;;;;9.15;2.67;;;15.30;83.00;;;;;;6090109;23;20817;-70
2021/07/08 12:35:55;;;;;;;6.05;2.97;;;15.30;82.90;;;;;;6090609;23;20030;-70
2021/07/08 12:39:01;;;;;;;8.43;2.50;;;15.30;82.90;;;;;;6085783;23;20335;-68
2021/07/08 12:41:28;;;;;;;7.50;2.40;;;15.30;83.00;;;;;;6091543;23;20074;-67
2021/07/08 12:43:54;;;;;;;10.98;2.80;;;15.30;83.00;;;;;;6089509;23;20007;-70
2021/07/08 12:46:27;;;;;;;10.65;2.03;;;15.30;83.00;;;;;;6091203;23;20002;-67
2021/07/08 12:48:54;;;;;;;9.02;4.07;;;15.20;83.00;;;;;;6089607;23;20002;-69
2021/07/08 12:51:21;;;;;;;13.88;5.78;;;15.20;83.10;;;;;;6091533;23;20009;-72
2021/07/08 12:53:48;;;;;;;10.50;4.05;;;15.20;83.20;;;;;;6090142;23;20002;-70
2021/07/08 12:56:15;;;;;;;11.02;3.40;;;15.20;83.40;;;;;;6091516;23;20034;-71
2021/07/08 12:58:41;;;;;;;8.88;3.17;;;15.20;83.70;;;;;;6091673;23;20006;-70
2021/07/08 13:01:08;;;;;;;8.15;3.60;;;15.20;83.80;;;;;;6090764;23;20020;-71
2021/07/08 13:03:39;;;;;;;11.82;3.40;;;15.20;84.10;;;;;;6089256;23;20438;-72
2021/07/08 13:06:15;;;;;;;9.65;4.10;;;15.10;84.30;;;;;;6087344;23;20033;-77
2021/07/08 13:08:41;;;;;;;;;;;15.10;84.80;;;;;;6091303;23;20017;-75
2021/07/08 13:11:16;;;;;;;7.63;3.03;;;15.10;85.20;;;;;;6089155;23;19937;-70
2021/07/08 13:13:43;;;;;;;17.92;4.57;;;15.10;85.50;;;;;;6089469;23;20321;-70
2021/07/08 13:16:21;;;;;;;15.02;4.53;;;15.10;85.60;;;;;;6088608;23;20053;-69
2021/07/08 13:18:48;;;;;;;13.32;3.80;;;15.10;85.80;;;;;;6089357;23;20533;-69
2021/07/08 13:21:20;;;;;;;12.50;3.28;;;15.00;85.90;;;;;;6090585;23;20069;-69
2021/07/08 13:23:48;;;;;;;13.10;3.75;;;15.00;85.90;;;;;;6089310;23;20017;-69
2021/07/08 13:26:22;;;;;;;9.38;4.70;;;15.00;85.80;;;;;;6090306;23;20013;-69
2021/07/08 13:28:50;;;;;;;8.60;2.17;;;14.90;85.70;;;;;;6090186;23;20007;-69
2021/07/08 13:31:23;;;;;;;8.88;3.17;;;14.90;85.80;;;;;;6089232;23;20063;-68
2021/07/08 13:33:52;;;;;;;13.35;3.25;;;14.90;85.80;;;;;;6087850;23;20002;-69
2021/07/08 13:36:32;;;;;;;10.07;2.83;;;14.90;85.80;;;;;;6087258;23;20017;-69
2021/07/08 13:39:05;;;;;;;11.88;3.20;;;14.90;85.80;;;;;;6090508;23;19999;-68